Time;durP1;ratioP1;P1;durP2;ratioP2;P2;SDS_P1;SDS_P2;PMS_P1;PMS_P2;Temp;Humidity;BMP_temperature;BMP_pressure;BME280_temperature;BME280_humidity;BME280_pressure;Samples;Min_cycle;Max_cycle;Signal;HPM_P1;HPM_P2
2020/12/03 00:01:11;;;;;;;17.73;5.00;;;6.40;99.90;;;;;;5089696;28;20139;-39
2020/12/03 00:03:42;;;;;;;18.13;5.70;;;6.40;99.90;;;;;;5089492;28;20036;-41
2020/12/03 00:06:18;;;;;;;23.70;7.10;;;6.30;99.90;;;;;;5080745;28;20053;-39
2020/12/03 00:09:06;;;;;;;25.85;6.93;;;6.30;99.90;;;;;;5058816;28;20118;-40
2020/12/03 00:11:39;;;;;;;21.67;5.05;;;6.30;99.90;;;;;;5070309;28;20066;-44
2020/12/03 00:14:05;;;;;;;17.70;6.25;;;6.30;99.90;;;;;;5061668;28;20036;-40
2020/12/03 00:16:33;;;;;;;19.80;6.15;;;6.30;99.90;;;;;;5070038;28;20112;-40
2020/12/03 00:18:59;;;;;;;17.35;5.97;;;6.30;99.90;;;;;;5071042;28;20034;-41
2020/12/03 00:21:44;;;;;;;27.25;6.60;;;6.30;99.90;;;;;;5072279;28;20127;-40
2020/12/03 00:24:29;;;;;;;26.67;6.28;;;6.20;99.90;;;;;;5066117;28;20452;-40
2020/12/03 00:26:55;;;;;;;22.33;6.78;;;6.20;99.90;;;;;;5078928;28;20424;-39
2020/12/03 00:29:22;;;;;;;22.17;5.80;;;6.20;99.90;;;;;;5064465;28;20667;-41
2020/12/03 00:31:48;;;;;;;25.48;6.45;;;6.10;99.90;;;;;;5066993;28;21892;-39
2020/12/03 00:34:16;;;;;;;24.50;7.13;;;6.10;99.90;;;;;;5070771;28;20042;-41
2020/12/03 00:36:42;;;;;;;24.35;8.00;;;6.20;99.90;;;;;;5083230;28;20020;-42
2020/12/03 00:39:11;;;;;;;22.70;5.72;;;6.10;99.90;;;;;;5063687;28;20041;-41
2020/12/03 00:41:36;;;;;;;27.85;6.32;;;6.10;99.90;;;;;;5061673;28;20024;-42
2020/12/03 00:44:03;;;;;;;29.20;7.43;;;6.10;99.90;;;;;;5060146;28;20504;-41
2020/12/03 00:46:33;;;;;;;22.75;7.70;;;6.10;99.90;;;;;;5067377;28;20028;-40
2020/12/03 00:48:59;;;;;;;27.58;6.82;;;6.10;99.90;;;;;;5069386;28;20059;-41
2020/12/03 00:51:25;;;;;;;19.27;6.95;;;6.10;99.90;;;;;;5071889;28;20036;-40
2020/12/03 00:53:51;;;;;;;23.42;6.53;;;6.10;99.90;;;;;;5054264;28;20038;-40
2020/12/03 00:56:19;;;;;;;21.42;6.60;;;6.10;99.90;;;;;;5078838;28;20028;-40
2020/12/03 00:58:46;;;;;;;18.40;6.47;;;6.10;99.90;;;;;;5066089;28;20039;-41
2020/12/03 01:01:12;;;;;;;16.25;7.45;;;6.10;99.90;;;;;;5084024;28;20472;-39
2020/12/03 01:03:38;;;;;;;28.27;8.82;;;6.00;99.90;;;;;;5083396;28;20101;-40
2020/12/03 01:06:04;;;;;;;24.30;7.72;;;6.00;99.90;;;;;;5073061;28;20120;-38
2020/12/03 01:08:31;;;;;;;22.10;7.72;;;6.00;99.90;;;;;;5090607;28;20034;-39
2020/12/03 01:10:56;;;;;;;22.05;8.63;;;6.00;99.90;;;;;;5084127;28;20056;-40
2020/12/03 01:13:23;;;;;;;25.27;9.05;;;6.00;99.90;;;;;;5057911;28;20036;-39
2020/12/03 01:15:48;;;;;;;29.77;9.45;;;6.00;99.90;;;;;;5062773;28;20528;-39
2020/12/03 01:18:14;;;;;;;27.65;8.15;;;6.00;99.90;;;;;;5075251;28;20024;-40
2020/12/03 01:20:40;;;;;;;21.00;7.65;;;6.00;99.90;;;;;;5075776;28;20071;-39
2020/12/03 01:23:06;;;;;;;24.98;8.68;;;6.00;99.90;;;;;;5074201;28;20430;-37
2020/12/03 01:25:31;;;;;;;28.83;9.40;;;6.00;99.90;;;;;;5068531;28;20051;-40
2020/12/03 01:27:57;;;;;;;23.48;8.68;;;6.00;99.90;;;;;;5064962;28;20056;-41
2020/12/03 01:30:23;;;;;;;20.25;9.68;;;6.10;99.90;;;;;;5072787;28;20520;-41
2020/12/03 01:32:50;;;;;;;30.42;8.88;;;6.00;99.90;;;;;;5071507;28;20100;-39
2020/12/03 01:35:17;;;;;;;29.63;9.23;;;6.10;99.90;;;;;;5080616;28;20357;-40
2020/12/03 01:37:43;;;;;;;26.50;9.95;;;6.10;99.90;;;;;;5074192;28;20032;-40
2020/12/03 01:40:13;;;;;;;27.58;10.00;;;6.10;99.90;;;;;;5077645;28;20040;-40
2020/12/03 01:42:40;;;;;;;24.17;8.82;;;6.10;99.90;;;;;;5068080;28;20028;-39
2020/12/03 01:45:43;;;;;;;24.02;9.43;;;6.10;99.90;;;;;;5053688;28;20029;-39
2020/12/03 01:48:47;;;;;;;19.50;8.82;;;6.10;99.90;;;;;;5044536;28;20033;-39
2020/12/03 01:51:18;;;;;;;23.98;9.38;;;6.20;99.90;;;;;;5046574;28;20917;-39
2020/12/03 01:53:45;;;;;;;21.00;9.40;;;6.20;99.90;;;;;;5060392;28;20616;-40
2020/12/03 01:56:41;;;;;;;25.45;11.30;;;6.20;99.90;;;;;;5074848;28;20420;-40
2020/12/03 01:59:07;;;;;;;22.63;8.07;;;6.20;99.90;;;;;;5057182;28;20446;-40
2020/12/03 02:01:34;;;;;;;23.20;12.43;;;6.20;99.90;;;;;;5069961;28;20052;-39
2020/12/03 02:04:00;;;;;;;21.05;11.77;;;6.20;99.90;;;;;;5069003;28;20040;-40
2020/12/03 02:06:28;;;;;;;27.13;13.88;;;6.20;99.90;;;;;;5072611;28;20060;-41
2020/12/03 02:08:54;;;;;;;31.70;13.98;;;6.20;99.90;;;;;;5068173;28;20029;-40
2020/12/03 02:11:21;;;;;;;25.13;13.48;;;6.20;99.90;;;;;;5070934;28;20036;-38
2020/12/03 02:14:08;;;;;;;24.75;11.40;;;6.20;99.90;;;;;;5071641;28;20036;-39
2020/12/03 02:16:38;;;;;;;24.45;12.77;;;6.20;99.90;;;;;;5072721;28;20437;-40
2020/12/03 02:19:15;;;;;;;26.40;11.85;;;6.20;99.90;;;;;;5067805;28;20032;-41
2020/12/03 02:21:42;;;;;;;25.65;14.15;;;6.30;99.90;;;;;;5060425;28;20070;-40
2020/12/03 02:24:07;;;;;;;30.83;14.77;;;6.30;99.90;;;;;;5053440;28;20062;-39
2020/12/03 02:26:33;;;;;;;31.33;15.95;;;6.30;99.90;;;;;;5071247;28;20099;-40
2020/12/03 02:28:59;;;;;;;29.77;16.98;;;6.30;99.90;;;;;;5072178;28;20033;-39
2020/12/03 02:31:24;;;;;;;31.98;18.45;;;6.30;99.90;;;;;;5052999;28;20575;-40
2020/12/03 02:33:50;;;;;;;37.03;17.90;;;6.30;99.90;;;;;;5070471;28;20028;-43
2020/12/03 02:36:15;;;;;;;31.38;15.88;;;6.30;99.90;;;;;;5070590;28;20117;-40
2020/12/03 02:38:42;;;;;;;36.55;16.27;;;6.30;99.90;;;;;;5070718;28;20028;-49
2020/12/03 02:41:08;;;;;;;34.60;18.02;;;6.30;99.90;;;;;;5068979;28;20496;-43
2020/12/03 02:43:34;;;;;;;33.55;18.67;;;6.30;99.90;;;;;;5071399;28;20024;-43
2020/12/03 02:45:59;;;;;;;39.13;18.02;;;6.40;99.90;;;;;;5071833;28;20035;-41
2020/12/03 02:48:25;;;;;;;31.42;18.17;;;6.40;99.90;;;;;;5069755;28;20032;-41
2020/12/03 02:50:51;;;;;;;36.20;20.35;;;6.40;99.90;;;;;;5060382;28;20048;-48
2020/12/03 02:53:17;;;;;;;35.83;18.25;;;6.40;99.90;;;;;;5071374;28;20033;-45
2020/12/03 02:55:42;;;;;;;36.38;19.13;;;6.40;99.90;;;;;;5072446;28;20153;-51
2020/12/03 02:58:08;;;;;;;35.50;18.15;;;6.40;99.90;;;;;;5070823;28;20020;-46
2020/12/03 03:00:33;;;;;;;37.03;19.42;;;6.40;99.90;;;;;;5061406;28;20477;-45
2020/12/03 03:02:59;;;;;;;37.85;18.67;;;6.40;99.90;;;;;;5070031;28;20536;-46
2020/12/03 03:05:25;;;;;;;38.60;18.20;;;6.40;99.90;;;;;;5075525;28;20071;-48
2020/12/03 03:07:50;;;;;;;35.92;18.70;;;6.40;99.90;;;;;;5091254;28;20129;-44
2020/12/03 03:10:16;;;;;;;32.58;16.50;;;6.40;99.90;;;;;;5077446;28;20062;-47
2020/12/03 03:12:42;;;;;;;35.97;19.40;;;6.40;99.90;;;;;;5071086;28;20024;-46
2020/12/03 03:15:08;;;;;;;34.05;19.23;;;6.40;99.90;;;;;;5090922;28;20484;-43
2020/12/03 03:17:33;;;;;;;39.42;19.55;;;6.40;99.90;;;;;;5089905;28;20111;-42
2020/12/03 03:19:59;;;;;;;32.75;18.13;;;6.40;99.90;;;;;;5088737;28;20385;-44
2020/12/03 03:22:25;;;;;;;36.30;20.55;;;6.40;99.90;;;;;;5089958;28;20040;-46
2020/12/03 03:24:50;;;;;;;36.05;17.00;;;6.40;99.90;;;;;;5092361;28;20025;-44
2020/12/03 03:27:16;;;;;;;31.40;16.77;;;6.40;99.90;;;;;;5089495;28;20109;-40
2020/12/03 03:29:41;;;;;;;37.67;17.98;;;6.40;99.90;;;;;;5060161;28;20040;-41
2020/12/03 03:32:07;;;;;;;34.00;20.05;;;6.30;99.90;;;;;;5067099;28;20064;-43
2020/12/03 03:34:33;;;;;;;34.42;18.98;;;6.40;99.90;;;;;;5091085;28;20421;-40
2020/12/03 03:36:58;;;;;;;35.10;18.40;;;6.30;99.90;;;;;;5083672;28;20094;-40
2020/12/03 03:39:25;;;;;;;40.83;19.15;;;6.40;99.90;;;;;;5080742;28;20028;-41
2020/12/03 03:41:53;;;;;;;37.90;20.08;;;6.30;99.90;;;;;;5067411;28;20119;-41
2020/12/03 03:44:19;;;;;;;38.05;18.52;;;6.30;99.90;;;;;;5085409;28;20069;-43
2020/12/03 03:46:45;;;;;;;30.50;17.33;;;6.30;99.90;;;;;;5087048;28;20028;-44
2020/12/03 03:49:10;;;;;;;37.50;21.55;;;6.40;99.90;;;;;;5064753;28;20433;-40
2020/12/03 03:51:36;;;;;;;43.10;20.05;;;6.30;99.90;;;;;;5089525;28;20055;-37
2020/12/03 03:54:02;;;;;;;33.75;18.13;;;6.30;99.90;;;;;;5088586;28;20028;-43
2020/12/03 03:56:27;;;;;;;44.55;22.65;;;6.40;99.90;;;;;;5090350;28;20486;-46
2020/12/03 03:58:53;;;;;;;35.55;19.30;;;6.40;99.90;;;;;;5087878;28;20103;-43
2020/12/03 04:01:19;;;;;;;36.92;20.42;;;6.40;99.90;;;;;;5084204;28;20036;-38
2020/12/03 04:03:45;;;;;;;35.13;21.15;;;6.30;99.90;;;;;;5065665;28;20032;-39
2020/12/03 04:06:10;;;;;;;35.20;18.42;;;6.30;99.90;;;;;;5078577;28;20110;-43
2020/12/03 04:08:36;;;;;;;32.15;18.38;;;6.40;99.90;;;;;;5069894;28;20029;-41
2020/12/03 04:11:02;;;;;;;39.35;21.42;;;6.30;99.90;;;;;;5067040;28;20052;-40
2020/12/03 04:13:27;;;;;;;38.20;19.95;;;6.40;99.90;;;;;;5057141;28;20119;-39
2020/12/03 04:15:53;;;;;;;34.88;19.60;;;6.30;99.90;;;;;;5058462;28;20028;-42
2020/12/03 04:18:26;;;;;;;39.63;20.30;;;6.30;99.90;;;;;;5067234;28;20051;-43
2020/12/03 04:20:57;;;;;;;38.25;22.13;;;6.40;99.90;;;;;;5067749;28;20098;-44
2020/12/03 04:23:23;;;;;;;40.88;21.80;;;6.30;99.90;;;;;;5068428;28;20035;-43
2020/12/03 04:25:52;;;;;;;39.25;22.50;;;6.40;99.90;;;;;;5067796;28;20477;-42
2020/12/03 04:28:18;;;;;;;39.53;21.65;;;6.40;99.90;;;;;;5068544;28;20024;-39
2020/12/03 04:30:44;;;;;;;41.53;22.67;;;6.40;99.90;;;;;;5068367;28;20056;-44
2020/12/03 04:33:10;;;;;;;48.10;23.08;;;6.40;99.90;;;;;;5067004;28;20523;-47
2020/12/03 04:35:37;;;;;;;38.22;22.10;;;6.40;99.90;;;;;;5070284;28;20090;-43
2020/12/03 04:38:05;;;;;;;47.17;22.83;;;6.40;99.90;;;;;;5068261;28;20040;-39
2020/12/03 04:40:34;;;;;;;38.85;23.00;;;6.40;99.90;;;;;;5065638;28;20101;-41
2020/12/03 04:43:26;;;;;;;42.20;22.02;;;6.40;99.90;;;;;;5067123;28;20028;-42
2020/12/03 04:46:07;;;;;;;39.15;22.63;;;6.40;99.90;;;;;;5067805;28;20020;-40
2020/12/03 04:48:51;;;;;;;40.90;22.50;;;6.40;99.90;;;;;;5068440;28;20119;-46
2020/12/03 04:51:56;;;;;;;49.03;22.75;;;6.40;99.90;;;;;;5066451;28;20150;-40
2020/12/03 04:54:27;;;;;;;52.42;22.48;;;6.40;99.90;;;;;;4986462;28;20038;-42
2020/12/03 04:57:03;;;;;;;47.05;24.67;;;6.40;99.90;;;;;;4987342;28;20407;-38
2020/12/03 04:59:42;;;;;;;45.78;24.77;;;6.40;99.90;;;;;;4986850;28;20035;-42
2020/12/03 05:02:38;;;;;;;52.15;26.77;;;6.40;99.90;;;;;;4950309;28;20137;-38
2020/12/03 05:05:33;;;;;;;48.88;26.90;;;6.40;99.90;;;;;;4986025;28;20157;-41
2020/12/03 05:08:07;;;;;;;51.67;26.80;;;6.40;99.90;;;;;;4987138;28;20037;-41
2020/12/03 05:10:44;;;;;;;50.53;25.98;;;6.50;99.90;;;;;;4979679;28;20040;-43
2020/12/03 05:13:21;;;;;;;44.85;25.02;;;6.40;99.90;;;;;;4985459;28;20054;-39
2020/12/03 05:15:50;;;;;;;52.42;26.33;;;6.40;99.90;;;;;;4987278;28;20030;-40
2020/12/03 05:18:21;;;;;;;52.08;26.33;;;6.40;99.90;;;;;;4986810;28;20046;-39
2020/12/03 05:20:52;;;;;;;34.55;20.92;;;6.40;99.90;;;;;;4983940;28;20042;-40
2020/12/03 05:23:36;;;;;;;50.03;25.35;;;6.40;99.90;;;;;;4986575;28;20482;-41
2020/12/03 05:26:10;;;;;;;49.75;27.45;;;6.40;99.90;;;;;;4981885;28;20042;-39
2020/12/03 05:28:47;;;;;;;50.95;25.98;;;6.40;99.90;;;;;;4987263;28;20114;-44
2020/12/03 05:31:41;;;;;;;45.83;26.52;;;6.40;99.90;;;;;;5015947;28;20040;-41
2020/12/03 05:34:20;;;;;;;53.45;22.23;;;6.40;99.90;;;;;;5066530;28;20063;-40
2020/12/03 05:36:55;;;;;;;51.40;27.65;;;6.40;99.90;;;;;;5069864;28;20032;-39
2020/12/03 05:39:28;;;;;;;50.72;27.70;;;6.40;99.90;;;;;;5067713;28;20025;-43
2020/12/03 05:41:58;;;;;;;56.20;28.30;;;6.30;99.90;;;;;;5067549;28;20121;-42
2020/12/03 05:44:33;;;;;;;55.67;28.63;;;6.40;99.90;;;;;;5049061;28;20488;-41
2020/12/03 05:46:59;;;;;;;61.13;30.70;;;6.40;99.90;;;;;;5066599;28;20079;-39
2020/12/03 05:49:27;;;;;;;54.97;27.13;;;6.40;99.90;;;;;;5067118;28;20043;-40
2020/12/03 05:52:18;;;;;;;52.58;30.02;;;6.40;99.90;;;;;;5066999;28;20098;-38
2020/12/03 05:54:57;;;;;;;56.65;28.05;;;6.40;99.90;;;;;;5002968;28;20522;-39
2020/12/03 05:57:27;;;;;;;52.60;28.85;;;6.30;99.90;;;;;;5007244;28;20411;-41
2020/12/03 05:59:53;;;;;;;57.28;30.42;;;6.30;99.90;;;;;;5000191;28;20082;-43
2020/12/03 06:02:46;;;;;;;56.45;30.92;;;6.30;99.90;;;;;;5015206;28;20337;-37
2020/12/03 06:05:24;;;;;;;53.47;30.15;;;6.30;99.90;;;;;;4994533;28;20469;-37
2020/12/03 06:08:08;;;;;;;61.35;32.70;;;6.30;99.90;;;;;;5010122;28;20060;-40
2020/12/03 06:10:50;;;;;;;63.55;31.15;;;6.30;99.90;;;;;;5006080;28;20069;-40
2020/12/03 06:13:34;;;;;;;60.25;30.52;;;6.30;99.90;;;;;;5004115;28;20042;-41
2020/12/03 06:16:13;;;;;;;56.03;31.60;;;6.30;99.90;;;;;;5009115;28;20033;-39
2020/12/03 06:18:41;;;;;;;59.75;31.55;;;6.30;99.90;;;;;;4996843;28;20696;-41
2020/12/03 06:21:45;;;;;;;53.65;28.95;;;6.30;99.90;;;;;;5006481;28;20061;-39
2020/12/03 06:24:31;;;;;;;60.22;28.52;;;6.30;99.90;;;;;;4999322;28;20046;-39
2020/12/03 06:30:51;;;;;;;57.75;30.42;;;6.20;99.90;;;;;;5002639;28;20254;-41
2020/12/03 06:33:25;;;;;;;56.40;29.25;;;6.20;99.90;;;;;;5089670;28;20028;-39
2020/12/03 06:36:06;;;;;;;54.65;30.92;;;6.20;99.90;;;;;;5085067;28;20138;-40
2020/12/03 06:38:37;;;;;;;59.03;30.00;;;6.20;99.90;;;;;;5106408;28;20043;-38
2020/12/03 06:41:31;;;;;;;54.70;30.10;;;6.20;99.90;;;;;;5079719;28;20032;-43
2020/12/03 06:44:14;;;;;;;53.38;27.92;;;6.20;99.90;;;;;;5069135;28;20033;-42
2020/12/03 06:47:21;;;;;;;53.47;29.88;;;6.20;99.90;;;;;;5084353;28;20047;-40
2020/12/03 06:49:55;;;;;;;54.35;29.33;;;6.20;99.90;;;;;;5080020;28;20032;-39
2020/12/03 06:52:43;;;;;;;58.65;31.65;;;6.20;99.90;;;;;;5099771;28;20036;-40
2020/12/03 06:55:11;;;;;;;53.03;28.70;;;6.20;99.90;;;;;;5105446;28;20042;-39
2020/12/03 06:57:46;;;;;;;57.25;29.33;;;6.20;99.90;;;;;;5093136;28;20107;-39
2020/12/03 07:00:41;;;;;;;53.17;29.25;;;6.20;99.90;;;;;;5081582;28;20125;-44
2020/12/03 07:03:26;;;;;;;49.00;26.88;;;6.20;99.90;;;;;;5090972;28;20063;-43
2020/12/03 07:06:05;;;;;;;52.17;24.85;;;6.20;99.90;;;;;;5076486;28;20053;-39
2020/12/03 07:08:50;;;;;;;57.75;27.52;;;6.20;99.90;;;;;;5067790;28;20075;-39
2020/12/03 07:11:34;;;;;;;47.15;24.48;;;6.20;99.90;;;;;;5074923;28;20040;-40
2020/12/03 07:14:37;;;;;;;52.97;27.42;;;6.20;99.90;;;;;;5087683;28;20107;-39
2020/12/03 07:17:38;;;;;;;47.75;24.83;;;6.10;99.90;;;;;;5074585;28;20106;-40
2020/12/03 07:20:24;;;;;;;52.17;27.35;;;6.00;99.90;;;;;;5007476;28;20081;-40
2020/12/03 07:22:57;;;;;;;51.13;27.20;;;6.10;99.90;;;;;;5021511;28;20052;-39
2020/12/03 07:25:23;;;;;;;33.45;19.67;;;6.00;99.90;;;;;;5015284;28;20172;-40
2020/12/03 07:28:11;;;;;;;53.28;24.42;;;6.00;99.90;;;;;;5028155;28;20155;-38
2020/12/03 07:30:52;;;;;;;52.45;26.90;;;6.00;99.90;;;;;;4986716;28;20090;-39
2020/12/03 07:33:36;;;;;;;46.67;25.23;;;6.00;99.90;;;;;;4973348;28;20175;-39
2020/12/03 07:36:16;;;;;;;29.15;13.75;;;6.00;99.90;;;;;;4969528;28;20054;-39
2020/12/03 07:38:52;;;;;;;45.85;22.65;;;6.00;99.90;;;;;;4970928;28;20042;-39
2020/12/03 07:41:19;;;;;;;43.90;20.08;;;6.00;99.90;;;;;;4970970;28;20051;-39
2020/12/03 07:43:45;;;;;;;53.85;25.00;;;6.00;99.90;;;;;;4971029;28;20074;-39
2020/12/03 07:46:29;;;;;;;51.13;24.73;;;6.00;99.90;;;;;;4975985;28;20034;-38
2020/12/03 07:48:56;;;;;;;49.42;25.25;;;6.00;99.90;;;;;;4978360;28;20137;-39
2020/12/03 07:51:23;;;;;;;46.95;24.50;;;6.00;99.90;;;;;;4971533;28;20039;-39
2020/12/03 07:54:18;;;;;;;46.22;23.25;;;6.00;99.90;;;;;;4976081;28;20122;-39
2020/12/03 07:56:46;;;;;;;22.85;8.93;;;6.00;99.90;;;;;;4977466;28;20528;-39
2020/12/03 07:59:23;;;;;;;48.97;25.85;;;6.00;99.90;;;;;;4985360;28;20022;-38
2020/12/03 08:01:54;;;;;;;49.20;25.30;;;6.00;99.90;;;;;;4993783;28;20514;-40
2020/12/03 08:04:40;;;;;;;50.28;22.35;;;6.00;99.90;;;;;;4986859;28;20042;-40
2020/12/03 08:07:12;;;;;;;57.97;28.27;;;6.00;99.90;;;;;;5031969;28;20048;-39
2020/12/03 08:09:43;;;;;;;57.42;27.83;;;6.00;99.90;;;;;;5081279;28;20362;-41
2020/12/03 08:12:10;;;;;;;50.73;27.23;;;6.00;99.90;;;;;;5092415;28;20063;-40
2020/12/03 08:14:57;;;;;;;54.67;25.13;;;6.00;99.90;;;;;;5098211;28;20640;-40
2020/12/03 08:17:23;;;;;;;60.75;29.38;;;6.00;99.90;;;;;;5079532;28;20024;-40
2020/12/03 08:20:10;;;;;;;56.85;27.50;;;6.00;99.90;;;;;;5081547;28;20093;-41
2020/12/03 08:22:43;;;;;;;62.58;28.67;;;6.00;99.90;;;;;;5074955;28;20021;-41
2020/12/03 08:25:25;;;;;;;52.45;24.13;;;6.00;99.90;;;;;;5103437;28;20028;-39
2020/12/03 08:28:00;;;;;;;46.20;20.27;;;6.00;99.90;;;;;;5078918;28;20055;-40
2020/12/03 08:30:37;;;;;;;56.92;29.67;;;5.90;99.90;;;;;;5094778;28;20040;-38
2020/12/03 08:33:06;;;;;;;65.40;31.67;;;6.00;99.90;;;;;;5094458;28;20496;-38
2020/12/03 08:35:32;;;;;;;59.00;29.75;;;5.90;99.90;;;;;;5108218;27;20040;-39
2020/12/03 08:38:01;;;;;;;58.40;28.73;;;6.00;99.90;;;;;;5123246;27;20432;-39
2020/12/03 08:40:28;;;;;;;57.15;28.17;;;6.00;99.90;;;;;;5090070;28;20090;-41
2020/12/03 08:42:54;;;;;;;55.72;26.25;;;6.00;99.90;;;;;;5093369;28;20099;-39
2020/12/03 08:45:20;;;;;;;55.38;25.13;;;6.00;99.90;;;;;;5088844;28;20533;-39
2020/12/03 08:47:49;;;;;;;61.63;28.95;;;5.90;99.90;;;;;;5089744;28;20029;-39
2020/12/03 08:50:16;;;;;;;66.75;27.92;;;6.00;99.90;;;;;;5092126;28;20039;-40
2020/12/03 08:52:43;;;;;;;55.65;26.48;;;5.90;99.90;;;;;;5090477;28;20112;-39
2020/12/03 08:55:10;;;;;;;60.40;26.52;;;5.90;99.90;;;;;;5091878;28;20092;-42
2020/12/03 08:57:38;;;;;;;68.00;33.72;;;5.90;99.90;;;;;;5083108;28;20055;-39
2020/12/03 09:00:13;;;;;;;66.72;33.35;;;5.90;99.90;;;;;;5086897;28;20388;-38
2020/12/03 09:02:41;;;;;;;59.15;24.23;;;5.90;99.90;;;;;;5079362;28;20046;-41
2020/12/03 09:05:07;;;;;;;64.78;29.85;;;5.90;99.90;;;;;;5062451;28;20055;-38
2020/12/03 09:07:41;;;;;;;64.18;30.88;;;5.90;99.90;;;;;;5056260;28;20081;-39
2020/12/03 09:10:09;;;;;;;64.13;26.92;;;5.90;99.90;;;;;;5061100;28;20093;-39
2020/12/03 09:12:38;;;;;;;62.58;27.67;;;5.90;99.90;;;;;;5055917;28;20040;-38
2020/12/03 09:15:08;;;;;;;61.13;29.02;;;5.90;99.90;;;;;;5055882;28;20033;-38
2020/12/03 09:17:38;;;;;;;57.88;27.75;;;5.90;99.90;;;;;;5056746;28;20071;-39
2020/12/03 09:20:09;;;;;;;57.60;27.40;;;5.90;99.90;;;;;;5056474;28;20068;-40
2020/12/03 09:22:37;;;;;;;57.45;26.88;;;5.90;99.90;;;;;;5059055;28;20036;-39
2020/12/03 09:25:06;;;;;;;57.75;27.83;;;5.90;99.90;;;;;;5057835;28;20032;-40
2020/12/03 09:27:38;;;;;;;57.67;26.33;;;5.90;99.90;;;;;;5054119;28;20033;-41
2020/12/03 09:30:07;;;;;;;56.15;26.85;;;6.00;99.90;;;;;;5055888;28;20028;-39
2020/12/03 09:32:38;;;;;;;58.95;25.90;;;6.00;99.90;;;;;;5053472;28;20032;-38
2020/12/03 09:35:06;;;;;;;54.35;25.20;;;6.00;99.90;;;;;;5055248;28;20381;-39
2020/12/03 09:37:33;;;;;;;52.78;26.05;;;6.00;99.90;;;;;;5054287;28;20029;-37
2020/12/03 09:40:01;;;;;;;59.95;25.90;;;6.00;99.90;;;;;;5045742;28;20398;-39
2020/12/03 09:42:27;;;;;;;58.67;28.77;;;6.00;99.90;;;;;;5044804;28;20111;-42
2020/12/03 09:44:57;;;;;;;47.75;21.70;;;6.00;99.90;;;;;;5041838;28;20091;-38
2020/12/03 09:47:28;;;;;;;55.25;24.13;;;6.00;99.90;;;;;;5045693;28;20048;-41
2020/12/03 09:49:55;;;;;;;57.93;26.77;;;6.00;99.90;;;;;;5046503;28;20400;-40
2020/12/03 09:52:22;;;;;;;36.90;15.50;;;6.00;99.90;;;;;;5049842;28;20273;-38
2020/12/03 09:54:49;;;;;;;66.30;25.67;;;6.10;99.90;;;;;;5051126;28;20035;-40
2020/12/03 09:57:16;;;;;;;63.45;26.67;;;6.10;99.90;;;;;;5052024;28;20064;-35
2020/12/03 09:59:43;;;;;;;54.42;27.85;;;6.00;99.90;;;;;;5053710;28;20047;-39
2020/12/03 10:02:11;;;;;;;55.45;24.95;;;6.00;99.90;;;;;;5054205;28;20429;-39
2020/12/03 10:04:57;;;;;;;58.53;24.50;;;6.10;99.90;;;;;;5058393;28;20037;-38
2020/12/03 10:07:33;;;;;;;60.88;26.55;;;6.10;99.90;;;;;;5052415;28;20041;-42
2020/12/03 10:10:42;;;;;;;54.03;26.52;;;6.10;99.90;;;;;;5055774;28;20071;-39
2020/12/03 11:28:27;;;;;;;48.08;21.13;;;6.40;99.90;;;;;;5043560;28;20044;-39
2020/12/03 11:31:07;;;;;;;45.97;21.08;;;6.40;99.90;;;;;;4989392;28;20058;-39
2020/12/03 11:33:38;;;;;;;47.83;21.40;;;6.40;99.90;;;;;;4983946;28;20545;-38
2020/12/03 11:36:15;;;;;;;27.45;12.77;;;6.50;99.90;;;;;;5006591;28;20037;-39
2020/12/03 11:38:50;;;;;;;27.63;12.15;;;6.50;99.90;;;;;;4999899;28;20088;-39
2020/12/03 11:53:24;;;;;;;38.25;14.63;;;6.50;99.90;;;;;;4989474;28;20044;-40
2020/12/03 11:55:50;;;;;;;34.65;15.90;;;6.50;99.90;;;;;;4996151;28;20124;-40
2020/12/03 11:58:17;;;;;;;35.30;17.48;;;6.50;99.90;;;;;;4993295;28;20451;-41
2020/12/03 12:00:44;;;;;;;31.10;15.00;;;6.50;99.90;;;;;;4996295;28;20046;-40
2020/12/03 12:03:11;;;;;;;23.80;10.73;;;6.50;99.90;;;;;;5000613;28;20463;-42
2020/12/03 12:05:53;;;;;;;26.92;11.20;;;6.40;99.90;;;;;;4997357;28;20030;-38
2020/12/03 12:10:58;;;;;;;18.83;9.02;;;6.30;99.90;;;;;;5006950;28;20490;-39
2020/12/03 12:13:25;;;;;;;22.70;10.55;;;6.30;99.90;;;;;;4994243;28;20038;-39
2020/12/03 12:15:52;;;;;;;22.85;10.43;;;6.30;99.90;;;;;;4995206;28;20122;-44
2020/12/03 12:18:20;;;;;;;21.52;7.55;;;6.30;99.90;;;;;;4993748;28;20026;-42
2020/12/03 12:20:49;;;;;;;23.65;9.32;;;6.30;99.90;;;;;;5000488;28;20042;-42
2020/12/03 12:23:17;;;;;;;25.63;11.80;;;6.30;99.90;;;;;;4993485;28;20030;-39
2020/12/03 12:25:44;;;;;;;12.98;6.60;;;6.30;99.90;;;;;;4996247;28;20030;-39
2020/12/03 12:28:11;;;;;;;20.60;9.38;;;6.30;99.90;;;;;;4999379;28;20463;-43
2020/12/03 12:30:38;;;;;;;14.90;5.40;;;6.20;99.90;;;;;;4986436;28;20054;-47
2020/12/03 13:59:06;;;;;;;14.27;3.95;;;5.90;99.90;;;;;;4974104;28;20426;-39
2020/12/03 14:01:35;;;;;;;14.57;5.53;;;5.80;99.90;;;;;;4993787;28;20046;-40
2020/12/03 14:04:01;;;;;;;17.05;7.38;;;5.80;99.90;;;;;;4990600;28;20061;-47
2020/12/03 14:06:27;;;;;;;14.55;6.78;;;5.80;99.90;;;;;;4992872;28;20062;-42
2020/12/03 14:08:52;;;;;;;20.75;6.97;;;5.80;99.90;;;;;;4991848;28;20074;-42
2020/12/03 14:11:19;;;;;;;16.63;6.03;;;5.80;99.90;;;;;;5009096;28;20038;-41
2020/12/03 14:13:45;;;;;;;20.42;6.78;;;5.80;99.90;;;;;;4996350;28;20084;-40
2020/12/03 14:16:11;;;;;;;17.60;7.45;;;5.80;99.90;;;;;;4966379;28;20105;-39
2020/12/03 14:18:38;;;;;;;28.55;8.88;;;5.80;99.90;;;;;;4986247;28;20040;-41
2020/12/03 14:21:05;;;;;;;14.77;5.65;;;5.80;99.90;;;;;;4984894;28;20363;-43
2020/12/03 14:23:32;;;;;;;16.85;7.93;;;5.80;99.90;;;;;;4984369;28;20033;-40
2020/12/03 14:25:57;;;;;;;19.17;9.40;;;5.80;99.90;;;;;;4984047;28;20631;-41
2020/12/03 14:28:24;;;;;;;15.50;7.70;;;5.80;99.90;;;;;;4986547;28;20022;-37
2020/12/03 14:30:54;;;;;;;16.50;6.57;;;5.80;99.90;;;;;;4968372;28;20061;-45
2020/12/03 14:33:21;;;;;;;13.93;7.78;;;5.80;99.90;;;;;;4986340;28;20045;-39
2020/12/03 14:35:47;;;;;;;17.58;6.95;;;5.80;99.90;;;;;;5006811;28;20392;-44
2020/12/03 14:38:12;;;;;;;29.10;9.15;;;5.80;99.90;;;;;;4993037;28;20030;-42
2020/12/03 14:40:38;;;;;;;18.55;6.80;;;5.70;99.90;;;;;;4994462;28;20076;-42
2020/12/03 14:43:04;;;;;;;13.85;5.88;;;5.70;99.90;;;;;;4994102;28;20430;-40
2020/12/03 14:45:30;;;;;;;21.10;7.05;;;5.80;99.90;;;;;;4999282;28;20029;-43
2020/12/03 14:47:56;;;;;;;14.38;6.97;;;5.80;99.90;;;;;;4993432;28;20491;-40
2020/12/03 14:50:24;;;;;;;8.65;4.63;;;5.80;99.90;;;;;;5009095;28;20037;-41
2020/12/03 14:52:56;;;;;;;15.77;7.78;;;5.70;99.90;;;;;;4993864;28;20061;-44
2020/12/03 14:55:23;;;;;;;17.35;6.68;;;5.70;99.90;;;;;;4990978;28;20026;-47
2020/12/03 14:57:48;;;;;;;10.75;5.18;;;5.70;99.90;;;;;;4991971;28;20442;-45
2020/12/03 15:00:14;;;;;;;13.40;5.18;;;5.70;99.90;;;;;;4999605;28;20054;-46
2020/12/03 15:02:40;;;;;;;17.10;7.57;;;5.70;99.90;;;;;;4991697;28;20030;-41
2020/12/03 15:05:07;;;;;;;10.25;4.28;;;5.80;99.90;;;;;;4993051;28;20035;-44
2020/12/03 15:07:33;;;;;;;20.20;6.45;;;5.80;99.90;;;;;;4991420;28;20463;-40
2020/12/03 15:10:02;;;;;;;17.60;6.82;;;5.80;99.90;;;;;;4993434;28;20026;-46
2020/12/03 15:12:28;;;;;;;11.88;5.40;;;5.80;99.90;;;;;;4992206;28;20022;-41
2020/12/03 15:14:54;;;;;;;21.98;8.88;;;5.80;99.90;;;;;;4993773;28;20080;-44
2020/12/03 15:17:19;;;;;;;13.57;6.60;;;5.80;99.90;;;;;;4993867;28;20129;-44
2020/12/03 15:19:45;;;;;;;11.60;5.28;;;5.80;99.90;;;;;;4997560;28;20080;-40
2020/12/03 15:22:11;;;;;;;16.75;7.38;;;5.80;99.90;;;;;;4999246;28;20475;-39
2020/12/03 15:24:37;;;;;;;12.95;6.38;;;5.80;99.90;;;;;;4994448;28;20077;-39
2020/12/03 15:27:04;;;;;;;18.48;7.20;;;5.80;99.90;;;;;;5003730;28;20104;-45
2020/12/03 15:29:30;;;;;;;10.82;4.95;;;5.80;99.90;;;;;;4986262;28;20077;-46
2020/12/03 15:31:55;;;;;;;16.65;5.05;;;5.80;99.90;;;;;;4992189;28;20438;-39
2020/12/03 15:34:21;;;;;;;19.20;7.38;;;5.80;99.90;;;;;;4992626;28;20047;-48
2020/12/03 15:36:57;;;;;;;13.27;6.30;;;5.80;99.90;;;;;;4992627;28;20052;-41
2020/12/03 15:39:26;;;;;;;15.77;8.30;;;5.80;99.90;;;;;;4980002;28;20045;-43
2020/12/03 15:42:06;;;;;;;10.98;4.88;;;5.80;99.90;;;;;;4992874;28;20438;-45
2020/12/03 15:44:33;;;;;;;13.77;6.07;;;5.80;99.90;;;;;;4992739;28;20391;-39
2020/12/03 15:47:00;;;;;;;12.15;5.80;;;5.80;99.90;;;;;;4991243;28;20041;-44
2020/12/03 15:49:25;;;;;;;13.80;5.70;;;5.80;99.90;;;;;;4983671;28;20081;-39
2020/12/03 15:51:52;;;;;;;8.55;4.80;;;5.80;99.90;;;;;;4980620;28;20046;-42
2020/12/03 15:54:21;;;;;;;18.33;5.88;;;5.80;99.90;;;;;;5003950;28;20030;-40
2020/12/03 15:56:49;;;;;;;10.38;3.78;;;5.80;99.90;;;;;;4997302;28;20476;-40
2020/12/03 15:59:15;;;;;;;12.40;6.95;;;5.80;99.90;;;;;;4993089;28;20046;-41
2020/12/03 16:01:47;;;;;;;11.82;6.65;;;5.80;99.90;;;;;;5001523;28;20104;-40